Time;durP1;ratioP1;P1;durP2;ratioP2;P2;SDS_P1;SDS_P2;PMS_P1;PMS_P2;Temp;Humidity;BMP_temperature;BMP_pressure;BME280_temperature;BME280_humidity;BME280_pressure;Samples;Min_cycle;Max_cycle;Signal;HPM_P1;HPM_P2
2023/01/29 00:00:17;;;;;;;;;;;;;;;5.21;73.37;100432.31;5031520;28;3938;-79
2023/01/29 00:02:43;;;;;;;;;;;;;;;5.24;73.26;100425.75;5031918;28;4009;-79
2023/01/29 00:05:10;;;;;;;;;;;;;;;5.23;73.42;100418.75;5031994;28;4037;-80
2023/01/29 00:07:36;;;;;;;;;;;;;;;5.21;73.38;100413.59;5030390;28;3984;-79
2023/01/29 00:10:03;;;;;;;;;;;;;;;5.19;73.38;100404.13;5032825;28;4146;-79
2023/01/29 00:12:29;;;;;;;;;;;;;;;5.21;73.33;100402.94;5034050;28;4049;-79
2023/01/29 00:14:56;;;;;;;;;;;;;;;5.18;73.62;100397.16;5034037;28;3999;-80
2023/01/29 00:17:22;;;;;;;;;;;;;;;5.20;73.42;100397.75;5036147;28;3975;-79
2023/01/29 00:19:49;;;;;;;;;;;;;;;5.23;73.39;100402.72;5035759;28;3932;-79
2023/01/29 00:22:15;;;;;;;;;;;;;;;5.25;73.34;100400.69;5034239;28;4079;-80
2023/01/29 00:24:43;;;;;;;;;;;;;;;5.20;73.43;100395.91;5034791;28;3959;-80
2023/01/29 00:27:09;;;;;;;;;;;;;;;5.17;73.42;100384.78;5035374;28;4772;-79
2023/01/29 00:29:36;;;;;;;;;;;;;;;5.17;73.37;100369.59;5051085;28;4306;-79
2023/01/29 00:32:02;;;;;;;;;;;;;;;5.18;73.52;100373.13;5034399;28;4104;-79
2023/01/29 00:34:29;;;;;;;;;;;;;;;5.16;73.35;100365.28;5035762;28;3986;-79
2023/01/29 00:37:03;;;;;;;;;;;;;;;5.16;73.39;100359.94;5039486;28;4446;-79
2023/01/29 00:39:37;;;;;;;;;;;;;;;5.19;73.45;100369.41;5044189;28;4609;-80
2023/01/29 00:44:59;;;;;;;;;;;;;;;5.17;73.15;100358.09;5042401;28;4845;-79
2023/01/29 00:47:33;;;;;;;;;;;;;;;5.16;73.62;100353.78;5058616;28;4438;-80
2023/01/29 00:50:00;;;;;;;;;;;;;;;5.19;73.37;100345.38;5036586;28;4304;-79
2023/01/29 00:52:26;;;;;;;;;;;;;;;5.21;73.39;100335.34;5034639;28;4000;-79
2023/01/29 00:54:53;;;;;;;;;;;;;;;5.17;73.49;100339.41;5035474;28;4037;-80
2023/01/29 00:57:19;;;;;;;;;;;;;;;5.17;73.30;100331.38;5036548;28;4270;-79
2023/01/29 00:59:46;;;;;;;;;;;;;;;5.17;73.43;100329.53;5033856;28;3937;-79
2023/01/29 01:04:57;;;;;;;;;;;;;;;5.14;73.50;100334.44;5034840;28;4109;-80
2023/01/29 01:07:24;;;;;;;;;;;;;;;5.13;73.77;100332.78;5033062;28;3889;-79
2023/01/29 01:12:35;;;;;;;;;;;;;;;5.17;73.61;100323.38;5048771;28;4060;-79
2023/01/29 01:15:02;;;;;;;;;;;;;;;5.14;73.58;100331.78;5050105;28;4150;-79
2023/01/29 01:17:28;;;;;;;;;;;;;;;5.13;73.56;100330.13;5034472;28;4026;-79
2023/01/29 01:19:55;;;;;;;;;;;;;;;5.18;73.52;100328.53;5034633;28;4019;-79
2023/01/29 01:22:21;;;;;;;;;;;;;;;5.15;73.43;100333.44;5034681;28;3911;-79
2023/01/29 01:24:48;;;;;;;;;;;;;;;5.12;73.64;100325.81;5034081;28;3898;-80
2023/01/29 01:27:15;;;;;;;;;;;;;;;5.12;73.45;100321.28;5035555;28;4097;-79
2023/01/29 01:29:41;;;;;;;;;;;;;;;5.13;73.68;100320.28;5032886;28;4096;-79
2023/01/29 01:32:08;;;;;;;;;;;;;;;5.10;73.50;100303.81;5034292;28;4114;-79
2023/01/29 01:34:35;;;;;;;;;;;;;;;5.09;73.55;100294.97;5032654;28;4072;-80
2023/01/29 01:37:01;;;;;;;;;;;;;;;5.13;73.63;100300.75;5049039;28;4019;-79
2023/01/29 01:39:28;;;;;;;;;;;;;;;5.13;73.44;100306.09;5033632;28;3980;-79
2023/01/29 01:41:54;;;;;;;;;;;;;;;5.10;73.54;100312.63;5034771;28;4141;-79
2023/01/29 01:44:21;;;;;;;;;;;;;;;5.12;73.52;100304.47;5036436;28;4105;-79
2023/01/29 01:46:47;;;;;;;;;;;;;;;5.07;74.05;100290.84;5033940;28;3979;-79
2023/01/29 01:49:14;;;;;;;;;;;;;;;5.08;73.71;100284.47;5049235;28;3987;-79
2023/01/29 01:51:41;;;;;;;;;;;;;;;5.07;73.56;100278.31;5037246;28;4131;-79
2023/01/29 01:54:07;;;;;;;;;;;;;;;5.08;73.69;100263.13;5033270;28;4027;-79
2023/01/29 01:56:37;;;;;;;;;;;;;;;5.08;73.60;100263.94;5033833;28;4709;-80
2023/01/29 01:59:04;;;;;;;;;;;;;;;5.06;73.62;100259.81;5033353;28;3990;-79
2023/01/29 02:01:30;;;;;;;;;;;;;;;5.06;73.69;100266.00;5034118;28;4083;-79
2023/01/29 02:09:33;;;;;;;;;;;;;;;5.09;73.46;100254.09;5035711;28;4364;-80
2023/01/29 02:12:00;;;;;;;;;;;;;;;5.06;73.77;100241.13;5035828;28;4086;-79
2023/01/29 02:14:26;;;;;;;;;;;;;;;5.07;73.69;100250.81;5048091;28;4074;-79
2023/01/29 02:16:53;;;;;;;;;;;;;;;5.05;73.64;100240.31;5035337;28;4080;-80
2023/01/29 02:19:19;;;;;;;;;;;;;;;5.04;73.78;100235.16;5033140;28;3955;-79
2023/01/29 02:21:46;;;;;;;;;;;;;;;5.07;73.72;100232.13;5032320;28;3987;-80
2023/01/29 02:24:13;;;;;;;;;;;;;;;5.09;73.76;100219.38;5048819;28;3894;-80
2023/01/29 02:26:39;;;;;;;;;;;;;;;5.07;73.63;100224.94;5033861;28;4736;-79
2023/01/29 02:29:21;;;;;;;;;;;;;;;5.07;73.60;100232.13;5051231;28;4241;-79
2023/01/29 02:31:48;;;;;;;;;;;;;;;5.09;73.54;100243.41;5031580;28;4318;-80
2023/01/29 02:34:15;;;;;;;;;;;;;;;5.09;73.66;100244.25;5032933;28;3935;-80
2023/01/29 02:36:41;;;;;;;;;;;;;;;5.06;73.84;100254.47;5032370;28;4014;-79
2023/01/29 02:39:07;;;;;;;;;;;;;;;5.07;73.67;100256.97;5032898;28;4030;-80
2023/01/29 02:41:34;;;;;;;;;;;;;;;5.09;73.60;100256.75;5032801;28;3981;-79
2023/01/29 02:44:01;;;;;;;;;;;;;;;5.04;73.79;100257.34;5036676;28;4303;-79
2023/01/29 02:46:28;;;;;;;;;;;;;;;5.04;73.79;100249.34;5031586;28;3951;-79
2023/01/29 02:48:54;;;;;;;;;;;;;;;5.05;73.76;100250.16;5034084;28;3971;-80
2023/01/29 02:51:21;;;;;;;;;;;;;;;5.03;73.82;100229.00;5031822;28;4247;-79
2023/01/29 02:53:49;;;;;;;;;;;;;;;5.04;73.66;100227.97;5032530;28;4100;-80
2023/01/29 02:56:15;;;;;;;;;;;;;;;5.03;73.79;100231.69;5030928;28;4160;-80
2023/01/29 02:58:42;;;;;;;;;;;;;;;5.04;73.72;100227.97;5035236;28;4146;-80
2023/01/29 03:01:08;;;;;;;;;;;;;;;5.04;73.76;100222.66;5033615;28;4160;-80
2023/01/29 03:03:35;;;;;;;;;;;;;;;5.05;73.66;100212.78;5032335;28;4191;-80
2023/01/29 03:06:05;;;;;;;;;;;;;;;5.06;73.75;100204.59;5045949;28;4014;-79
2023/01/29 03:08:36;;;;;;;;;;;;;;;5.02;73.84;100195.31;5031117;28;4107;-79
2023/01/29 03:11:02;;;;;;;;;;;;;;;5.03;73.80;100194.31;5032836;28;4051;-79
2023/01/29 03:13:28;;;;;;;;;;;;;;;4.99;73.96;100191.19;5031814;28;4195;-80
2023/01/29 03:16:00;;;;;;;;;;;;;;;5.04;74.06;100184.44;5034101;28;4150;-80
2023/01/29 03:18:29;;;;;;;;;;;;;;;5.03;73.76;100180.97;5031448;28;4023;-80
2023/01/29 03:20:57;;;;;;;;;;;;;;;5.01;73.91;100178.47;5030428;28;4080;-79
2023/01/29 03:23:25;;;;;;;;;;;;;;;5.01;73.97;100172.31;5032041;28;4065;-80
2023/01/29 03:34:05;;;;;;;;;;;;;;;5.01;73.92;100169.66;5030737;28;3978;-79
2023/01/29 03:36:36;;;;;;;;;;;;;;;5.01;73.89;100159.78;5033877;28;4137;-80
2023/01/29 03:39:03;;;;;;;;;;;;;;;5.00;74.04;100149.31;5046497;28;3920;-80
2023/01/29 03:41:30;;;;;;;;;;;;;;;4.98;74.02;100130.81;5035511;28;4147;-80
2023/01/29 03:43:56;;;;;;;;;;;;;;;4.99;74.03;100128.97;5032584;28;4103;-80
2023/01/29 03:46:23;;;;;;;;;;;;;;;4.99;73.87;100120.97;5035165;28;4324;-80
2023/01/29 03:48:49;;;;;;;;;;;;;;;5.01;73.79;100125.09;5037018;28;3940;-80
2023/01/29 03:51:16;;;;;;;;;;;;;;;4.97;73.88;100120.31;5050825;28;3911;-80
2023/01/29 03:53:43;;;;;;;;;;;;;;;4.98;73.96;100111.31;5037601;28;3967;-80
2023/01/29 03:56:09;;;;;;;;;;;;;;;5.00;73.97;100101.28;5036790;28;3955;-80
2023/01/29 03:58:36;;;;;;;;;;;;;;;5.00;73.86;100098.59;5034313;28;4039;-80
2023/01/29 04:01:03;;;;;;;;;;;;;;;4.99;73.74;100091.59;5036972;28;4167;-80
2023/01/29 04:03:29;;;;;;;;;;;;;;;4.96;73.94;100081.31;5033773;28;4023;-80
2023/01/29 04:05:57;;;;;;;;;;;;;;;4.95;73.92;100093.84;5033306;28;4428;-80
2023/01/29 04:08:24;;;;;;;;;;;;;;;4.97;73.92;100090.97;5035989;28;3977;-80
2023/01/29 04:10:50;;;;;;;;;;;;;;;4.97;73.96;100083.81;5037938;28;3951;-80
2023/01/29 04:13:37;;;;;;;;;;;;;;;4.99;73.79;100080.94;5043243;28;4061;-80
2023/01/29 04:16:28;;;;;;;;;;;;;;;4.98;74.05;100076.63;5043022;28;3994;-80
2023/01/29 04:19:20;;;;;;;;;;;;;;;4.94;74.00;100062.00;5043401;28;4064;-80
2023/01/29 04:22:12;;;;;;;;;;;;;;;4.94;74.12;100052.16;5033504;28;4061;-80
2023/01/29 04:24:46;;;;;;;;;;;;;;;4.98;73.90;100047.25;5039695;28;4183;-79
2023/01/29 04:27:19;;;;;;;;;;;;;;;5.01;73.79;100036.19;5051249;28;4076;-80
2023/01/29 04:29:48;;;;;;;;;;;;;;;4.96;73.65;100020.75;5032272;28;4027;-80
2023/01/29 04:32:15;;;;;;;;;;;;;;;4.99;73.86;100040.88;5051493;28;4009;-80
2023/01/29 04:34:41;;;;;;;;;;;;;;;4.95;74.02;100031.63;5037417;28;4271;-79
2023/01/29 04:37:08;;;;;;;;;;;;;;;4.94;74.16;100022.81;5035252;28;4077;-80
2023/01/29 04:39:34;;;;;;;;;;;;;;;4.94;74.12;100036.16;5036121;28;4073;-80
2023/01/29 04:42:01;;;;;;;;;;;;;;;4.93;73.97;100029.16;5038914;28;4109;-80
2023/01/29 04:44:27;;;;;;;;;;;;;;;4.96;74.01;100018.09;5033894;28;4003;-80
2023/01/29 04:46:54;;;;;;;;;;;;;;;4.93;74.10;100012.31;5036471;28;3978;-80
2023/01/29 04:49:20;;;;;;;;;;;;;;;4.97;73.85;100017.09;5036112;28;4214;-80
2023/01/29 04:51:47;;;;;;;;;;;;;;;4.96;73.97;100003.91;5035863;28;4087;-80
2023/01/29 04:54:14;;;;;;;;;;;;;;;4.92;74.03;99992.00;5035399;28;4098;-80
2023/01/29 04:56:40;;;;;;;;;;;;;;;4.94;74.06;99987.28;5034266;28;4004;-80
2023/01/29 04:59:07;;;;;;;;;;;;;;;4.94;73.99;99987.28;5036147;28;3999;-80
2023/01/29 05:01:33;;;;;;;;;;;;;;;4.94;73.94;99990.78;5033454;28;3960;-80
2023/01/29 05:04:00;;;;;;;;;;;;;;;4.92;73.92;99979.47;5036496;28;4291;-80
2023/01/29 05:06:26;;;;;;;;;;;;;;;4.94;73.89;99976.59;5034753;28;3977;-80
2023/01/29 05:08:53;;;;;;;;;;;;;;;4.93;73.91;99990.97;5032871;28;4007;-80
2023/01/29 05:11:20;;;;;;;;;;;;;;;4.93;74.03;99997.13;5049681;28;4052;-80
2023/01/29 05:13:46;;;;;;;;;;;;;;;4.92;74.09;99987.47;5036876;28;3920;-80
2023/01/29 05:16:13;;;;;;;;;;;;;;;4.93;73.88;99982.97;5034708;28;4163;-80
2023/01/29 05:18:41;;;;;;;;;;;;;;;4.95;73.77;99976.41;5033909;28;4287;-80
2023/01/29 05:21:08;;;;;;;;;;;;;;;4.96;73.84;99979.91;5034035;28;4066;-80
2023/01/29 05:23:34;;;;;;;;;;;;;;;4.93;73.93;99969.63;5034112;28;4113;-80
2023/01/29 05:26:01;;;;;;;;;;;;;;;4.91;73.97;99950.31;5033948;28;4095;-80
2023/01/29 05:28:26;;;;;;;;;;;;;;;4.89;74.30;99942.50;5034239;28;4046;-80
2023/01/29 05:30:53;;;;;;;;;;;;;;;4.89;73.84;99923.84;5033266;28;4069;-80
2023/01/29 05:33:20;;;;;;;;;;;;;;;4.93;73.92;99921.59;5036354;28;4287;-80
2023/01/29 05:35:46;;;;;;;;;;;;;;;4.94;73.94;99917.88;5039512;28;4396;-80
2023/01/29 05:38:13;;;;;;;;;;;;;;;4.94;74.04;99925.88;5037241;28;4249;-80
2023/01/29 05:40:39;;;;;;;;;;;;;;;4.94;73.92;99931.22;5033266;28;4114;-79
2023/01/29 05:43:06;;;;;;;;;;;;;;;4.91;74.05;99919.13;5035125;28;4262;-80
2023/01/29 05:45:32;;;;;;;;;;;;;;;4.90;74.06;99914.78;5036073;28;4454;-80
2023/01/29 05:47:59;;;;;;;;;;;;;;;4.89;74.14;99899.81;5034717;28;4032;-80
2023/01/29 05:50:25;;;;;;;;;;;;;;;4.90;74.10;99892.63;5036941;28;4310;-80
2023/01/29 05:52:52;;;;;;;;;;;;;;;4.91;74.00;99880.91;5034812;28;3980;-80
2023/01/29 05:55:18;;;;;;;;;;;;;;;4.92;73.97;99869.25;5033832;28;4178;-80
2023/01/29 05:57:45;;;;;;;;;;;;;;;4.89;74.06;99857.13;5032900;28;4018;-80
2023/01/29 06:00:11;;;;;;;;;;;;;;;4.89;74.12;99849.13;5033111;28;4270;-79
2023/01/29 06:02:38;;;;;;;;;;;;;;;4.91;73.98;99838.22;5034705;28;4114;-80
2023/01/29 06:05:04;;;;;;;;;;;;;;;4.92;74.07;99832.69;5034225;28;4297;-80
2023/01/29 06:07:31;;;;;;;;;;;;;;;4.93;73.83;99823.66;5032672;28;4043;-80
2023/01/29 06:09:58;;;;;;;;;;;;;;;4.95;73.92;99813.63;5031754;28;3976;-80
2023/01/29 06:12:24;;;;;;;;;;;;;;;4.92;73.79;99790.00;5032765;28;4012;-80
2023/01/29 06:14:51;;;;;;;;;;;;;;;4.90;73.84;99780.56;5032462;28;4037;-79
2023/01/29 06:17:17;;;;;;;;;;;;;;;4.91;74.04;99764.34;5034058;28;4161;-80
2023/01/29 06:19:44;;;;;;;;;;;;;;;4.89;74.15;99771.72;5033229;28;4138;-80
2023/01/29 06:22:10;;;;;;;;;;;;;;;4.92;73.83;99775.84;5036289;28;4285;-80
2023/01/29 06:24:37;;;;;;;;;;;;;;;4.92;73.85;99781.19;5040635;28;4282;-80
2023/01/29 06:27:03;;;;;;;;;;;;;;;4.89;73.90;99779.72;5040300;28;4310;-80
2023/01/29 06:29:30;;;;;;;;;;;;;;;4.88;74.01;99755.91;5040931;28;4576;-80
2023/01/29 06:31:56;;;;;;;;;;;;;;;4.86;74.21;99744.63;5040635;28;4235;-79
2023/01/29 06:34:23;;;;;;;;;;;;;;;4.90;73.99;99751.19;5041446;28;4338;-80
2023/01/29 06:36:49;;;;;;;;;;;;;;;4.89;74.05;99749.56;5040568;28;4357;-80
2023/01/29 06:39:16;;;;;;;;;;;;;;;4.88;73.96;99758.56;5041444;28;4283;-80
2023/01/29 06:41:44;;;;;;;;;;;;;;;4.90;74.02;99760.03;5041260;28;4438;-80
2023/01/29 06:44:10;;;;;;;;;;;;;;;4.90;73.97;99752.03;5040304;28;4371;-80
2023/01/29 06:46:37;;;;;;;;;;;;;;;4.90;74.18;99756.53;5040587;28;4430;-80
2023/01/29 06:49:03;;;;;;;;;;;;;;;4.88;74.04;99766.59;5042437;28;4455;-80
2023/01/29 06:51:30;;;;;;;;;;;;;;;4.87;74.17;99767.63;5041407;28;4675;-80
2023/01/29 06:53:56;;;;;;;;;;;;;;;4.84;74.15;99752.81;5041761;28;4291;-80
2023/01/29 06:56:23;;;;;;;;;;;;;;;4.85;74.18;99742.97;5056009;28;4424;-80
2023/01/29 06:58:50;;;;;;;;;;;;;;;4.83;74.18;99729.84;5040970;28;4336;-80
2023/01/29 07:01:16;;;;;;;;;;;;;;;4.86;74.14;99728.63;5037475;28;4343;-80
2023/01/29 07:03:43;;;;;;;;;;;;;;;4.85;74.11;99710.94;5038891;28;4685;-80
2023/01/29 07:06:09;;;;;;;;;;;;;;;4.83;74.16;99705.84;5039217;28;4429;-80
2023/01/29 07:08:36;;;;;;;;;;;;;;;4.83;74.21;99710.34;5041097;28;4435;-80
2023/01/29 07:11:03;;;;;;;;;;;;;;;4.82;74.36;99701.50;5039232;28;4497;-80
2023/01/29 07:13:29;;;;;;;;;;;;;;;4.84;74.20;99720.81;5029888;28;4373;-80
2023/01/29 07:15:56;;;;;;;;;;;;;;;4.86;74.08;99709.94;5031991;28;4430;-80
2023/01/29 07:18:22;;;;;;;;;;;;;;;4.84;74.16;99704.81;5029410;28;4205;-80
2023/01/29 07:20:49;;;;;;;;;;;;;;;4.83;74.12;99697.00;5026955;28;4266;-80
2023/01/29 07:23:16;;;;;;;;;;;;;;;4.83;74.19;99697.00;5040720;28;4447;-80
2023/01/29 07:25:42;;;;;;;;;;;;;;;4.81;74.30;99693.72;5044627;28;4331;-79
2023/01/29 07:28:09;;;;;;;;;;;;;;;4.84;74.18;99695.97;5036476;28;4224;-80
2023/01/29 07:30:35;;;;;;;;;;;;;;;4.85;74.07;99690.44;5030732;28;4052;-80
2023/01/29 07:33:03;;;;;;;;;;;;;;;4.84;74.12;99694.13;5032482;28;4195;-80
2023/01/29 07:35:29;;;;;;;;;;;;;;;4.83;74.06;99703.16;5032535;28;4140;-80
2023/01/29 07:37:56;;;;;;;;;;;;;;;4.83;74.20;99699.69;5032638;28;4273;-80
2023/01/29 07:40:22;;;;;;;;;;;;;;;4.84;73.98;99704.81;5033686;28;3985;-80
2023/01/29 07:42:49;;;;;;;;;;;;;;;4.86;74.05;99707.28;5032703;28;4131;-80
2023/01/29 07:45:15;;;;;;;;;;;;;;;4.89;73.94;99698.88;5037773;28;4214;-81
2023/01/29 07:47:42;;;;;;;;;;;;;;;4.85;74.03;99682.41;5033039;28;4222;-80
2023/01/29 07:50:08;;;;;;;;;;;;;;;4.85;74.05;99661.06;5029865;28;4174;-79
2023/01/29 07:52:35;;;;;;;;;;;;;;;4.86;73.92;99646.72;5035529;28;4265;-80
2023/01/29 07:55:01;;;;;;;;;;;;;;;4.85;74.03;99647.72;5038512;28;4295;-80
2023/01/29 07:57:29;;;;;;;;;;;;;;;4.84;73.94;99659.44;5033529;28;4243;-79
2023/01/29 07:59:55;;;;;;;;;;;;;;;4.86;74.01;99669.94;5030673;28;5293;-80
2023/01/29 08:02:22;;;;;;;;;;;;;;;4.85;74.05;99662.94;5028828;28;4154;-80
2023/01/29 08:04:49;;;;;;;;;;;;;;;4.84;74.00;99658.63;5031223;28;4699;-80
2023/01/29 08:07:15;;;;;;;;;;;;;;;4.85;73.95;99653.06;5031789;28;4213;-80
2023/01/29 08:09:42;;;;;;;;;;;;;;;4.84;74.26;99638.09;5036738;28;4050;-80
2023/01/29 08:12:08;;;;;;;;;;;;;;;4.84;74.09;99637.28;5029767;28;4170;-79
2023/01/29 08:14:35;;;;;;;;;;;;;;;4.82;74.19;99617.97;5033324;28;4237;-79
2023/01/29 08:17:02;;;;;;;;;;;;;;;4.82;74.07;99613.47;5036351;28;4166;-80
2023/01/29 08:19:28;;;;;;;;;;;;;;;4.86;73.93;99627.25;5042438;28;4326;-80
2023/01/29 08:21:55;;;;;;;;;;;;;;;4.87;73.76;99627.00;5042110;28;4733;-80
2023/01/29 08:24:21;;;;;;;;;;;;;;;4.86;73.82;99613.91;5036652;28;4317;-80
2023/01/29 08:26:48;;;;;;;;;;;;;;;4.89;73.87;99618.81;5040089;28;4301;-80
2023/01/29 08:29:14;;;;;;;;;;;;;;;4.85;73.90;99623.72;5042608;28;4435;-80
2023/01/29 08:31:41;;;;;;;;;;;;;;;4.84;73.93;99622.09;5041410;28;4450;-80
2023/01/29 08:34:07;;;;;;;;;;;;;;;4.84;73.87;99622.09;5042664;28;4756;-80
2023/01/29 08:36:34;;;;;;;;;;;;;;;4.83;74.10;99625.78;5041405;28;4471;-80
2023/01/29 08:39:01;;;;;;;;;;;;;;;4.86;74.10;99614.72;5043044;28;4555;-80
2023/01/29 08:41:27;;;;;;;;;;;;;;;4.83;74.00;99623.13;5037916;28;4361;-80
2023/01/29 08:43:54;;;;;;;;;;;;;;;4.81;74.09;99624.34;5032188;28;4741;-80
2023/01/29 08:46:20;;;;;;;;;;;;;;;4.78;74.18;99621.06;5033755;28;4180;-80
2023/01/29 08:48:47;;;;;;;;;;;;;;;4.80;74.27;99625.38;5032244;28;4418;-82
2023/01/29 08:51:13;;;;;;;;;;;;;;;4.80;74.08;99630.72;5030313;28;4312;-80
2023/01/29 08:53:40;;;;;;;;;;;;;;;4.80;74.15;99628.88;5035246;28;4262;-80
2023/01/29 08:56:06;;;;;;;;;;;;;;;4.81;74.03;99627.84;5039788;28;4306;-80
2023/01/29 08:58:33;;;;;;;;;;;;;;;4.81;74.02;99611.81;5041840;28;4357;-80
2023/01/29 09:01:00;;;;;;;;;;;;;;;4.84;73.99;99610.59;5030456;28;4243;-80
2023/01/29 09:03:26;;;;;;;;;;;;;;;4.85;73.93;99609.56;5030565;28;4188;-80
2023/01/29 09:05:53;;;;;;;;;;;;;;;4.80;73.93;99596.03;5030485;28;4186;-80
2023/01/29 09:08:19;;;;;;;;;;;;;;;4.82;74.07;99593.97;5038428;28;4163;-80
2023/01/29 09:10:46;;;;;;;;;;;;;;;4.82;74.03;99581.44;5024021;28;4014;-80
2023/01/29 09:13:12;;;;;;;;;;;;;;;4.84;73.70;99573.25;5032775;28;4169;-80
2023/01/29 09:15:39;;;;;;;;;;;;;;;4.81;73.92;99571.00;5028152;28;4089;-80
2023/01/29 09:18:05;;;;;;;;;;;;;;;4.80;73.90;99556.84;5029633;28;4145;-80
2023/01/29 09:20:32;;;;;;;;;;;;;;;4.78;74.10;99558.88;5053878;28;4173;-80
2023/01/29 09:22:58;;;;;;;;;;;;;;;4.81;73.90;99549.66;5042723;28;4471;-80
2023/01/29 09:25:25;;;;;;;;;;;;;;;4.81;73.85;99549.66;5041926;28;4362;-79
2023/01/29 09:27:52;;;;;;;;;;;;;;;4.79;73.99;99547.19;5043441;28;4303;-79
2023/01/29 09:30:18;;;;;;;;;;;;;;;4.80;73.90;99543.50;5041465;28;4281;-79
2023/01/29 09:32:45;;;;;;;;;;;;;;;4.79;73.78;99539.16;5041996;28;5026;-79
2023/01/29 09:35:11;;;;;;;;;;;;;;;4.80;74.04;99535.50;5042465;28;4361;-79
2023/01/29 09:37:38;;;;;;;;;;;;;;;4.79;74.00;99515.16;5042604;28;4334;-79
2023/01/29 09:40:04;;;;;;;;;;;;;;;4.79;73.87;99509.81;5041278;28;4365;-79
2023/01/29 09:42:31;;;;;;;;;;;;;;;4.77;73.96;99504.72;5058423;28;4421;-79
2023/01/29 09:44:57;;;;;;;;;;;;;;;4.79;74.09;99504.50;5042226;28;4419;-79
2023/01/29 09:47:24;;;;;;;;;;;;;;;4.79;73.87;99501.81;5056096;28;4344;-79
2023/01/29 09:49:51;;;;;;;;;;;;;;;4.77;73.99;99495.91;5042373;28;4557;-79
2023/01/29 09:52:17;;;;;;;;;;;;;;;4.76;73.94;99503.09;5042671;28;4285;-78
2023/01/29 09:54:44;;;;;;;;;;;;;;;4.75;74.01;99492.59;5041914;28;4359;-79
2023/01/29 09:57:10;;;;;;;;;;;;;;;4.76;74.16;99491.56;5041868;28;4282;-79
2023/01/29 09:59:37;;;;;;;;;;;;;;;4.75;74.31;99481.94;5042389;28;4306;-79
2023/01/29 10:02:03;;;;;;;;;;;;;;;4.76;74.01;99486.22;5057850;28;4359;-79
2023/01/29 10:04:30;;;;;;;;;;;;;;;4.75;74.05;99469.41;5040339;28;4369;-79
2023/01/29 10:06:56;;;;;;;;;;;;;;;4.76;74.06;99463.06;5042815;28;4274;-79
2023/01/29 10:09:23;;;;;;;;;;;;;;;4.77;74.02;99455.88;5056700;28;4458;-79
2023/01/29 10:11:49;;;;;;;;;;;;;;;4.75;73.99;99441.91;5042050;28;4486;-79
2023/01/29 10:14:16;;;;;;;;;;;;;;;4.75;74.33;99436.59;5040140;28;4298;-79
2023/01/29 10:16:42;;;;;;;;;;;;;;;4.74;74.20;99417.09;5040854;28;4425;-79
2023/01/29 10:19:09;;;;;;;;;;;;;;;4.76;73.99;99398.19;5041427;28;4291;-80
2023/01/29 10:21:36;;;;;;;;;;;;;;;4.78;74.17;99396.97;5039364;28;4352;-80
2023/01/29 10:24:02;;;;;;;;;;;;;;;4.77;73.96;99387.34;5039204;28;4362;-80
2023/01/29 10:26:29;;;;;;;;;;;;;;;4.77;73.98;99384.66;5041534;28;4367;-80
2023/01/29 10:28:55;;;;;;;;;;;;;;;4.78;74.22;99380.16;5041510;28;4579;-80
2023/01/29 10:31:23;;;;;;;;;;;;;;;4.78;74.25;99369.47;5042840;28;4477;-80
2023/01/29 10:33:49;;;;;;;;;;;;;;;4.77;73.86;99363.31;5045442;28;4458;-80
2023/01/29 10:36:16;;;;;;;;;;;;;;;4.77;74.07;99363.31;5041462;28;4445;-80
2023/01/29 10:38:42;;;;;;;;;;;;;;;4.80;74.07;99355.94;5040932;28;4483;-80
2023/01/29 10:41:09;;;;;;;;;;;;;;;4.82;73.93;99357.34;5040534;28;4463;-79
2023/01/29 10:43:36;;;;;;;;;;;;;;;4.84;73.81;99355.28;5041771;28;4407;-80
2023/01/29 10:46:02;;;;;;;;;;;;;;;4.81;73.89;99339.72;5044714;28;4381;-80
2023/01/29 10:48:29;;;;;;;;;;;;;;;4.81;74.03;99338.91;5042313;28;4575;-80
2023/01/29 10:50:56;;;;;;;;;;;;;;;4.80;74.00;99339.94;5040802;28;4414;-80
2023/01/29 10:53:23;;;;;;;;;;;;;;;4.79;74.09;99328.41;5044617;28;4474;-80
2023/01/29 10:55:49;;;;;;;;;;;;;;;4.81;73.98;99330.91;5053611;28;4447;-80
2023/01/29 10:58:16;;;;;;;;;;;;;;;4.80;74.10;99327.41;5042186;28;4925;-79
2023/01/29 11:00:42;;;;;;;;;;;;;;;4.80;74.00;99314.06;5038821;28;4345;-79
2023/01/29 11:03:09;;;;;;;;;;;;;;;4.80;73.95;99298.06;5042068;28;4433;-79
2023/01/29 11:05:35;;;;;;;;;;;;;;;4.83;73.83;99299.50;5043250;28;1617;-79
2023/01/29 11:08:04;;;;;;;;;;;;;;;4.81;74.17;99281.03;5039838;28;4982;-80
2023/01/29 11:10:30;;;;;;;;;;;;;;;4.82;73.97;99271.16;5039184;28;4447;-80
2023/01/29 11:12:57;;;;;;;;;;;;;;;4.85;73.86;99266.22;5039805;28;4215;-80
2023/01/29 11:15:23;;;;;;;;;;;;;;;4.85;74.09;99268.06;5054437;28;4284;-80
2023/01/29 11:17:50;;;;;;;;;;;;;;;4.85;73.87;99260.06;5038166;28;4632;-80
2023/01/29 11:20:16;;;;;;;;;;;;;;;4.86;73.86;99259.06;5039669;28;4358;-79
2023/01/29 11:22:43;;;;;;;;;;;;;;;4.87;73.84;99255.34;5037723;28;4412;-80
2023/01/29 11:25:10;;;;;;;;;;;;;;;4.86;73.99;99254.53;5039904;28;4483;-80
2023/01/29 11:27:36;;;;;;;;;;;;;;;4.88;74.03;99247.13;5040450;28;4480;-80
2023/01/29 11:30:03;;;;;;;;;;;;;;;4.88;73.78;99249.81;5039459;28;4577;-79
2023/01/29 11:32:30;;;;;;;;;;;;;;;4.87;73.99;99258.81;5039584;28;4325;-80
2023/01/29 11:34:56;;;;;;;;;;;;;;;4.88;74.15;99252.47;5040891;28;4833;-80
2023/01/29 11:37:23;;;;;;;;;;;;;;;4.89;73.88;99238.09;5039710;28;4627;-80
2023/01/29 11:39:50;;;;;;;;;;;;;;;4.88;74.06;99232.94;5039597;28;4602;-79
2023/01/29 11:42:17;;;;;;;;;;;;;;;4.90;73.77;99214.88;5039479;28;4404;-80
2023/01/29 11:44:43;;;;;;;;;;;;;;;4.90;73.97;99206.88;5039843;28;4675;-80
2023/01/29 11:47:10;;;;;;;;;;;;;;;4.91;73.92;99192.50;5039675;28;4421;-80
2023/01/29 11:49:36;;;;;;;;;;;;;;;4.90;73.82;99188.22;5040344;28;4643;-80
2023/01/29 11:52:03;;;;;;;;;;;;;;;4.90;73.87;99164.19;5040905;28;4490;-79
2023/01/29 11:54:29;;;;;;;;;;;;;;;4.89;73.80;99152.72;5038794;28;4756;-80
2023/01/29 11:56:56;;;;;;;;;;;;;;;4.92;73.96;99157.63;5041305;28;4290;-80
2023/01/29 11:59:22;;;;;;;;;;;;;;;4.91;73.95;99152.47;5040671;28;4274;-80
2023/01/29 12:01:49;;;;;;;;;;;;;;;4.91;73.87;99148.00;5041627;28;4314;-80
2023/01/29 12:04:15;;;;;;;;;;;;;;;4.92;73.78;99146.13;5039823;28;4338;-80
2023/01/29 12:06:42;;;;;;;;;;;;;;;4.91;74.02;99148.00;5038278;28;4428;-80
2023/01/29 12:09:08;;;;;;;;;;;;;;;4.89;73.98;99155.38;5041929;28;4346;-79
2023/01/29 12:11:35;;;;;;;;;;;;;;;4.93;73.95;99155.75;5043295;28;5052;-80
2023/01/29 12:14:01;;;;;;;;;;;;;;;4.91;74.02;99150.66;5044033;28;4433;-80
2023/01/29 12:16:28;;;;;;;;;;;;;;;4.91;73.92;99153.31;5043090;28;4327;-80
2023/01/29 12:18:55;;;;;;;;;;;;;;;4.93;74.00;99166.44;5043758;28;4379;-80
2023/01/29 12:21:21;;;;;;;;;;;;;;;4.90;73.97;99143.66;5043917;28;4303;-79
2023/01/29 12:23:48;;;;;;;;;;;;;;;4.92;73.95;99133.59;5042708;28;4547;-80
2023/01/29 12:26:14;;;;;;;;;;;;;;;4.94;73.91;99120.03;5059235;28;4173;-80
2023/01/29 12:28:41;;;;;;;;;;;;;;;4.93;73.98;99105.06;5043079;28;4258;-79
2023/01/29 12:31:07;;;;;;;;;;;;;;;4.91;74.12;99080.44;5043879;28;4389;-80
2023/01/29 12:33:34;;;;;;;;;;;;;;;4.93;73.96;99078.38;5043084;28;4340;-80
2023/01/29 12:36:00;;;;;;;;;;;;;;;4.93;73.98;99065.03;5043845;28;4161;-80
2023/01/29 12:38:27;;;;;;;;;;;;;;;4.93;73.85;99031.16;5043275;28;4352;-80
2023/01/29 12:40:54;;;;;;;;;;;;;;;4.93;73.93;99039.19;5044175;28;4209;-80
2023/01/29 12:43:21;;;;;;;;;;;;;;;4.93;73.93;99014.34;5043992;28;4287;-79
2023/01/29 12:45:47;;;;;;;;;;;;;;;4.94;74.02;98976.78;5045300;28;4349;-80
2023/01/29 12:48:14;;;;;;;;;;;;;;;4.95;74.13;98990.94;5043404;28;4599;-80
2023/01/29 12:50:40;;;;;;;;;;;;;;;4.94;73.98;98965.28;5041799;28;4213;-80
2023/01/29 12:53:07;;;;;;;;;;;;;;;4.92;74.08;98972.72;5043231;28;4214;-80
2023/01/29 12:55:33;;;;;;;;;;;;;;;4.95;74.14;98985.59;5043271;28;4364;-80
2023/01/29 12:58:00;;;;;;;;;;;;;;;4.93;74.13;98966.31;5043491;28;4643;-80
2023/01/29 13:00:26;;;;;;;;;;;;;;;4.94;74.02;98958.13;5040545;28;4151;-80
2023/01/29 13:02:53;;;;;;;;;;;;;;;4.92;73.97;98957.50;5043556;28;4233;-80
2023/01/29 13:05:20;;;;;;;;;;;;;;;4.94;74.03;98936.78;5042657;28;4458;-80
2023/01/29 13:07:46;;;;;;;;;;;;;;;4.94;74.01;98917.25;5044055;28;4696;-80
2023/01/29 13:10:13;;;;;;;;;;;;;;;4.91;74.04;98915.88;5041464;28;4433;-80
2023/01/29 13:12:40;;;;;;;;;;;;;;;4.95;73.93;98934.91;5043137;28;4185;-80
2023/01/29 13:15:06;;;;;;;;;;;;;;;4.94;74.08;98910.09;5044691;28;4320;-79
2023/01/29 13:17:33;;;;;;;;;;;;;;;4.92;74.32;98896.16;5043404;28;4217;-80
2023/01/29 13:19:59;;;;;;;;;;;;;;;4.93;74.30;98899.63;5043551;28;4292;-79
2023/01/29 13:22:26;;;;;;;;;;;;;;;4.92;74.15;98896.16;5044524;28;4216;-80
2023/01/29 13:24:53;;;;;;;;;;;;;;;4.93;74.13;98902.28;5043226;28;4445;-79